Time;durP1;ratioP1;P1;durP2;ratioP2;P2;SDS_P1;SDS_P2;PMS_P1;PMS_P2;Temp;Humidity;BMP_temperature;BMP_pressure;BME280_temperature;BME280_humidity;BME280_pressure;Samples;Min_cycle;Max_cycle;Signal;HPM_P1;HPM_P2
2023/01/12 00:01:56;;;;;;;4.10;2.70;;;10.30;99.90;;;;;;5048352;28;20515;-66
2023/01/12 00:04:22;;;;;;;4.53;2.60;;;10.30;99.90;;;;;;5051235;28;20215;-66
2023/01/12 00:06:48;;;;;;;6.30;2.73;;;10.30;99.90;;;;;;5041613;28;20184;-66
2023/01/12 00:09:13;;;;;;;6.00;2.90;;;10.30;99.90;;;;;;5052075;28;20187;-66
2023/01/12 00:11:39;;;;;;;3.83;3.10;;;10.50;99.90;;;;;;5051777;28;20191;-66
2023/01/12 00:14:07;;;;;;;4.17;3.20;;;10.40;99.90;;;;;;5054257;28;20203;-66
2023/01/12 00:16:34;;;;;;;4.67;3.30;;;10.50;99.90;;;;;;5050027;28;20436;-66
2023/01/12 00:19:09;;;;;;;6.00;3.53;;;10.40;99.90;;;;;;5051773;28;20460;-66
2023/01/12 00:22:28;;;;;;;5.63;2.97;;;10.50;99.90;;;;;;5047035;28;20496;-67
2023/01/12 00:24:35;;;;;;;6.73;3.30;;;10.50;99.90;;;;;;5045567;28;20444;-65
2023/01/12 00:27:03;;;;;;;4.40;3.30;;;10.50;99.90;;;;;;5053354;28;20434;-66
2023/01/12 00:29:29;;;;;;;5.07;3.20;;;10.50;99.90;;;;;;5050253;28;20433;-66
2023/01/12 00:31:57;;;;;;;5.60;3.10;;;10.40;99.90;;;;;;5049031;28;20529;-66
2023/01/12 00:34:23;;;;;;;6.67;3.90;;;10.50;99.90;;;;;;5050622;28;20477;-66
2023/01/12 00:36:49;;;;;;;5.57;3.43;;;10.40;99.90;;;;;;5050114;28;20433;-66
2023/01/12 00:39:16;;;;;;;7.13;3.50;;;10.50;99.90;;;;;;5051875;28;20433;-66
2023/01/12 00:47:12;;;;;;;5.13;2.90;;;10.50;99.90;;;;;;5051726;28;20429;-66
2023/01/12 00:49:40;;;;;;;6.07;2.90;;;10.50;99.90;;;;;;5049468;28;20467;-66
2023/01/12 00:52:06;;;;;;;8.30;3.10;;;10.50;99.90;;;;;;5045188;28;20430;-66
2023/01/12 00:54:33;;;;;;;4.67;2.83;;;10.50;99.90;;;;;;5047910;28;20438;-65
2023/01/12 00:57:00;;;;;;;6.57;3.00;;;10.50;99.90;;;;;;5049704;28;20518;-66
2023/01/12 00:59:26;;;;;;;3.30;2.90;;;10.50;99.90;;;;;;5053650;28;20422;-66
2023/01/12 01:01:52;;;;;;;7.43;2.80;;;10.50;99.90;;;;;;5051668;28;20485;-66
2023/01/12 01:04:18;;;;;;;4.40;2.93;;;10.60;99.90;;;;;;5051107;28;20923;-66
2023/01/12 01:06:44;;;;;;;4.50;3.33;;;10.50;99.90;;;;;;5051503;28;20175;-66
2023/01/12 01:09:10;;;;;;;5.20;3.10;;;10.50;99.90;;;;;;5053104;28;20420;-66
2023/01/12 01:11:36;;;;;;;7.33;3.40;;;10.50;99.90;;;;;;5052238;28;20637;-66
2023/01/12 01:14:03;;;;;;;3.03;2.83;;;10.50;99.90;;;;;;5052937;28;20466;-66
2023/01/12 01:16:29;;;;;;;6.57;4.80;;;10.60;99.90;;;;;;5053367;28;20415;-66
2023/01/12 01:18:55;;;;;;;5.30;3.10;;;10.50;99.90;;;;;;5052441;28;20918;-66
2023/01/12 01:21:21;;;;;;;7.00;3.47;;;10.60;99.90;;;;;;5052859;28;20423;-66
2023/01/12 01:23:47;;;;;;;5.30;3.50;;;10.60;99.90;;;;;;5034611;28;20477;-66
2023/01/12 01:26:19;;;;;;;5.60;3.50;;;10.60;99.90;;;;;;5050317;28;20430;-66
2023/01/12 01:28:46;;;;;;;6.17;3.70;;;10.50;99.90;;;;;;5050377;28;20432;-66
2023/01/12 01:31:17;;;;;;;4.53;3.70;;;10.60;99.90;;;;;;5053088;28;20403;-66
2023/01/12 01:33:43;;;;;;;4.83;4.00;;;10.50;99.90;;;;;;5045855;28;20548;-67
2023/01/12 01:36:10;;;;;;;5.73;3.60;;;10.60;99.90;;;;;;5055356;28;20520;-66
2023/01/12 01:38:37;;;;;;;4.10;3.17;;;10.60;99.90;;;;;;5052664;28;20875;-66
2023/01/12 01:41:04;;;;;;;3.23;2.97;;;10.60;99.90;;;;;;5050819;28;20491;-66
2023/01/12 01:43:52;;;;;;;4.63;3.67;;;10.60;99.90;;;;;;5050424;28;20434;-66
2023/01/12 01:46:36;;;;;;;5.70;3.43;;;10.60;99.90;;;;;;5052164;28;20465;-66
2023/01/12 01:49:24;;;;;;;6.10;3.27;;;10.50;99.90;;;;;;5051016;28;20928;-66
2023/01/12 01:51:53;;;;;;;4.77;4.07;;;10.50;99.90;;;;;;5050641;28;20479;-66
2023/01/12 01:54:19;;;;;;;3.70;3.50;;;10.60;99.90;;;;;;5051236;28;20465;-66
2023/01/12 01:56:46;;;;;;;4.53;4.00;;;10.60;99.90;;;;;;5049323;28;20477;-65
2023/01/12 01:59:22;;;;;;;5.27;3.67;;;10.60;99.90;;;;;;5050321;28;20435;-65
2023/01/12 02:01:48;;;;;;;5.13;4.10;;;10.60;99.90;;;;;;5047767;28;20827;-65
2023/01/12 02:04:14;;;;;;;4.63;3.30;;;10.60;99.90;;;;;;5049178;28;20437;-65
2023/01/12 02:06:41;;;;;;;4.97;3.70;;;10.50;99.90;;;;;;5052138;28;20426;-66
2023/01/12 02:09:16;;;;;;;4.30;3.80;;;10.50;99.90;;;;;;5051563;28;20459;-65
2023/01/12 02:17:58;;;;;;;7.00;3.90;;;10.50;99.90;;;;;;5047576;28;20460;-66
2023/01/12 02:21:09;;;;;;;7.30;4.20;;;10.60;99.90;;;;;;5029235;28;20631;-66
2023/01/12 02:24:09;;;;;;;6.57;4.17;;;10.60;99.90;;;;;;5042133;28;20930;-65
2023/01/12 02:26:58;;;;;;;5.20;3.70;;;10.60;99.90;;;;;;5054018;28;20518;-66
2023/01/12 02:30:00;;;;;;;6.90;4.20;;;10.70;99.90;;;;;;5030773;28;20451;-65
2023/01/12 02:32:55;;;;;;;7.00;3.47;;;10.70;99.90;;;;;;5055328;28;20502;-66
2023/01/12 02:35:31;;;;;;;5.10;4.00;;;10.70;99.90;;;;;;5052866;28;20439;-66
2023/01/12 02:38:19;;;;;;;5.40;4.17;;;10.70;99.90;;;;;;5053774;28;20429;-66
2023/01/12 02:41:02;;;;;;;3.90;3.47;;;10.80;99.90;;;;;;5052719;28;20473;-66
2023/01/12 02:43:33;;;;;;;4.23;3.83;;;10.60;99.90;;;;;;5055133;28;20432;-65
2023/01/12 02:46:19;;;;;;;4.20;3.80;;;10.50;99.90;;;;;;5053076;28;20430;-66
2023/01/12 02:48:56;;;;;;;7.67;4.10;;;10.60;99.90;;;;;;5054217;28;20440;-66
2023/01/12 02:51:40;;;;;;;10.03;4.87;;;10.60;99.90;;;;;;5055244;28;20434;-65
2023/01/12 02:54:19;;;;;;;6.17;4.07;;;10.70;99.90;;;;;;5038250;28;20545;-65
2023/01/12 02:56:48;;;;;;;5.87;3.87;;;10.70;99.90;;;;;;5053947;28;20466;-66
2023/01/12 02:59:52;;;;;;;9.57;4.93;;;10.60;99.90;;;;;;5054294;28;20438;-65
2023/01/12 03:02:21;;;;;;;5.50;3.87;;;10.60;99.90;;;;;;5031901;28;20436;-65
2023/01/12 03:04:47;;;;;;;5.63;4.30;;;10.60;99.90;;;;;;5048057;28;20432;-66
2023/01/12 03:07:34;;;;;;;7.97;4.00;;;10.60;99.90;;;;;;5054722;28;20485;-65
2023/01/12 03:10:17;;;;;;;6.80;3.43;;;10.60;99.90;;;;;;5054258;28;20201;-65
2023/01/12 03:12:44;;;;;;;3.43;3.10;;;10.60;99.90;;;;;;5054480;28;20565;-66
2023/01/12 03:15:12;;;;;;;9.97;3.30;;;10.70;99.90;;;;;;5054230;28;20452;-66
2023/01/12 03:17:53;;;;;;;5.73;3.10;;;10.70;99.90;;;;;;5054861;28;20433;-65
2023/01/12 03:20:24;;;;;;;10.40;3.93;;;10.70;99.90;;;;;;5054075;28;20488;-65
2023/01/12 03:22:55;;;;;;;5.53;4.30;;;10.60;99.90;;;;;;5052358;28;20434;-66
2023/01/12 03:25:24;;;;;;;9.00;3.47;;;10.60;99.90;;;;;;5054033;28;20506;-66
2023/01/12 03:27:54;;;;;;;5.00;3.23;;;10.70;99.90;;;;;;5053638;28;20470;-66
2023/01/12 03:30:30;;;;;;;3.70;3.33;;;10.60;99.90;;;;;;5055387;28;20468;-65
2023/01/12 03:32:56;;;;;;;4.70;3.40;;;10.60;99.90;;;;;;5051926;28;20887;-66
2023/01/12 03:35:26;;;;;;;9.70;3.67;;;10.70;99.90;;;;;;5039870;28;20445;-65
2023/01/12 03:38:33;;;;;;;5.57;3.47;;;10.60;99.90;;;;;;5058972;28;20936;-65
2023/01/12 03:41:15;;;;;;;7.03;3.30;;;10.60;99.90;;;;;;5048646;28;20483;-65
2023/01/12 03:43:51;;;;;;;6.17;2.90;;;10.60;99.90;;;;;;5054294;28;20438;-65
2023/01/12 03:46:21;;;;;;;3.03;2.83;;;10.60;99.90;;;;;;5053779;28;20465;-65
2023/01/12 03:48:56;;;;;;;3.33;2.90;;;10.70;99.90;;;;;;5052249;28;20480;-65
2023/01/12 03:51:30;;;;;;;4.87;3.13;;;10.60;99.90;;;;;;5052464;28;20435;-65
2023/01/12 03:53:57;;;;;;;9.23;3.10;;;10.60;99.90;;;;;;5036233;28;20520;-66
2023/01/12 03:56:25;;;;;;;8.10;2.60;;;10.50;99.90;;;;;;5053624;28;20516;-65
2023/01/12 03:58:52;;;;;;;2.90;2.70;;;10.50;99.90;;;;;;5041298;28;20421;-66
2023/01/12 04:01:17;;;;;;;5.30;3.10;;;10.50;99.90;;;;;;5052553;28;20456;-65
2023/01/12 04:03:44;;;;;;;3.57;3.20;;;10.50;99.90;;;;;;5051084;28;20431;-65
2023/01/12 04:06:10;;;;;;;9.60;3.90;;;10.40;99.90;;;;;;5052890;28;20453;-66
2023/01/12 04:08:36;;;;;;;5.57;3.50;;;10.30;99.90;;;;;;5053090;28;20836;-65
2023/01/12 04:12:08;;;;;;;3.40;3.10;;;10.40;99.90;;;;;;5054008;28;20634;-65
2023/01/12 04:13:47;;;;;;;13.10;3.03;;;10.40;99.90;;;;;;5054383;28;20495;-65
2023/01/12 04:16:13;;;;;;;3.53;3.03;;;10.40;99.90;;;;;;5054492;28;20496;-65
2023/01/12 04:18:39;;;;;;;5.07;3.00;;;10.40;99.90;;;;;;5054189;28;20501;-65
2023/01/12 04:21:04;;;;;;;4.10;3.27;;;10.40;99.90;;;;;;5053890;28;20181;-65
2023/01/12 04:23:30;;;;;;;3.43;3.00;;;10.60;99.90;;;;;;5054428;28;20217;-65
2023/01/12 04:25:56;;;;;;;3.30;3.03;;;10.30;99.90;;;;;;5039091;28;20537;-65
2023/01/12 04:28:21;;;;;;;2.83;2.63;;;10.30;99.90;;;;;;5054419;28;20180;-65
2023/01/12 04:30:47;;;;;;;3.00;2.70;;;10.30;99.90;;;;;;5052677;28;20662;-65
2023/01/12 04:33:13;;;;;;;4.03;3.23;;;10.30;99.90;;;;;;5050644;28;20737;-65
2023/01/12 04:35:38;;;;;;;2.57;2.40;;;10.30;99.90;;;;;;5069600;28;20263;-65
2023/01/12 04:38:08;;;;;;;3.30;3.00;;;10.40;99.90;;;;;;5050983;28;20214;-66
2023/01/12 04:40:33;;;;;;;5.03;2.87;;;10.40;99.90;;;;;;5052375;28;20311;-65
2023/01/12 04:42:59;;;;;;;4.07;2.93;;;10.60;99.90;;;;;;5051272;28;20524;-66
2023/01/12 04:45:26;;;;;;;3.33;3.10;;;10.50;99.90;;;;;;5051446;28;20423;-65
2023/01/12 04:47:52;;;;;;;2.23;1.97;;;10.50;99.90;;;;;;5051347;28;20179;-67
2023/01/12 04:50:18;;;;;;;3.60;1.93;;;10.40;99.90;;;;;;5050454;28;20482;-66
2023/01/12 04:52:44;;;;;;;1.93;1.50;;;10.40;99.90;;;;;;5052642;28;20208;-66
2023/01/12 04:55:09;;;;;;;3.00;2.80;;;10.40;99.90;;;;;;5052975;28;20175;-66
2023/01/12 04:57:35;;;;;;;2.83;2.50;;;10.40;99.90;;;;;;5051063;28;20421;-66
2023/01/12 05:00:03;;;;;;;3.50;2.60;;;10.40;99.90;;;;;;5050785;28;20185;-66
2023/01/12 05:02:29;;;;;;;3.20;2.50;;;10.40;99.90;;;;;;5052103;28;20432;-67
2023/01/12 05:04:54;;;;;;;2.53;2.33;;;10.40;99.90;;;;;;5050712;28;20421;-67
2023/01/12 05:07:20;;;;;;;2.33;2.10;;;10.50;99.90;;;;;;5049558;28;20192;-66
2023/01/12 05:12:30;;;;;;;6.13;2.80;;;10.40;99.90;;;;;;5051463;28;20197;-66
2023/01/12 05:14:56;;;;;;;4.23;3.83;;;10.40;99.90;;;;;;5050491;28;20416;-66
2023/01/12 05:17:21;;;;;;;1.97;1.40;;;10.30;99.90;;;;;;5052079;28;20664;-66
2023/01/12 05:19:48;;;;;;;3.40;1.70;;;10.30;99.90;;;;;;5052304;28;20180;-66
2023/01/12 05:22:14;;;;;;;2.50;2.40;;;10.40;99.90;;;;;;5051070;28;20177;-67
2023/01/12 05:24:40;;;;;;;3.43;1.70;;;10.30;99.90;;;;;;5052118;28;20426;-66
2023/01/12 05:27:05;;;;;;;3.20;1.67;;;10.20;99.90;;;;;;5048445;28;20928;-67
2023/01/12 05:29:31;;;;;;;3.07;2.20;;;10.30;99.90;;;;;;5048638;28;20190;-66
2023/01/12 05:31:57;;;;;;;5.33;4.80;;;10.30;99.90;;;;;;5049912;28;20183;-67
2023/01/12 05:34:22;;;;;;;1.50;1.40;;;10.30;99.90;;;;;;5048714;28;20209;-67
2023/01/12 05:36:48;;;;;;;1.90;1.67;;;10.30;99.90;;;;;;5053041;28;20178;-64
2023/01/12 05:39:14;;;;;;;5.47;3.47;;;10.50;99.90;;;;;;5051173;28;20268;-65
2023/01/12 05:44:27;;;;;;;3.53;1.90;;;10.50;99.90;;;;;;5052617;28;20749;-65
2023/01/12 05:46:53;;;;;;;1.27;1.17;;;10.40;99.90;;;;;;5051251;28;20436;-65
2023/01/12 05:49:19;;;;;;;5.07;4.50;;;10.50;99.90;;;;;;5046135;28;20262;-67
2023/01/12 05:51:44;;;;;;;4.27;3.87;;;10.40;99.90;;;;;;5047452;28;20527;-67
2023/01/12 05:54:10;;;;;;;2.80;2.70;;;10.40;99.90;;;;;;5051570;28;20224;-67
2023/01/12 05:56:36;;;;;;;1.67;1.40;;;10.50;99.90;;;;;;5052307;28;20205;-67
2023/01/12 05:59:03;;;;;;;3.90;1.60;;;10.30;99.90;;;;;;5048825;28;20174;-67
2023/01/12 06:01:30;;;;;;;1.37;1.27;;;10.30;99.90;;;;;;5047747;28;20182;-67
2023/01/12 06:03:58;;;;;;;1.90;1.77;;;10.30;99.90;;;;;;5050784;28;20909;-67
2023/01/12 06:06:26;;;;;;;3.03;2.83;;;10.20;99.90;;;;;;5049898;28;20803;-66
2023/01/12 06:08:53;;;;;;;3.20;2.80;;;10.20;99.90;;;;;;5071788;28;20481;-67
2023/01/12 06:14:04;;;;;;;2.03;1.93;;;10.20;99.90;;;;;;5030199;28;21056;-67
2023/01/12 06:16:29;;;;;;;4.53;1.80;;;10.20;99.90;;;;;;5051880;28;20500;-66
2023/01/12 06:18:56;;;;;;;3.80;3.50;;;10.30;99.90;;;;;;5047740;28;20261;-66
2023/01/12 06:21:23;;;;;;;1.60;1.50;;;10.10;99.90;;;;;;5043433;28;20559;-65
2023/01/12 06:23:48;;;;;;;3.00;2.80;;;10.10;99.90;;;;;;5048516;28;20491;-65
2023/01/12 06:26:14;;;;;;;2.50;2.40;;;10.20;99.90;;;;;;5050590;28;20433;-65
2023/01/12 06:28:41;;;;;;;1.50;1.30;;;10.00;99.90;;;;;;5045878;28;20629;-66
2023/01/12 06:31:10;;;;;;;2.33;2.23;;;9.90;99.90;;;;;;5038986;28;20460;-66
2023/01/12 06:33:36;;;;;;;2.20;2.00;;;10.00;99.90;;;;;;5040757;28;20456;-65
2023/01/12 06:36:03;;;;;;;5.63;1.30;;;9.90;99.90;;;;;;5050646;28;20798;-66
2023/01/12 06:38:30;;;;;;;1.67;1.57;;;9.90;99.90;;;;;;5068620;28;20177;-65
2023/01/12 06:41:01;;;;;;;6.43;3.40;;;9.80;99.90;;;;;;5072285;28;20521;-65
2023/01/12 06:43:30;;;;;;;2.50;2.40;;;9.90;99.90;;;;;;5041602;28;20519;-65
2023/01/12 06:45:55;;;;;;;2.57;2.40;;;9.90;99.90;;;;;;5044744;28;20555;-65
2023/01/12 06:48:24;;;;;;;2.97;2.23;;;9.90;99.90;;;;;;5031280;28;20453;-65
2023/01/12 06:51:11;;;;;;;1.30;1.30;;;9.90;99.90;;;;;;5040137;28;20182;-66
2023/01/12 06:53:37;;;;;;;1.77;1.67;;;10.00;99.90;;;;;;5049554;28;20528;-65
2023/01/12 06:56:03;;;;;;;1.80;1.70;;;10.00;99.90;;;;;;5051489;28;20976;-65
2023/01/12 06:58:29;;;;;;;2.10;1.90;;;10.00;99.90;;;;;;5034457;28;20184;-67
2023/01/12 07:01:03;;;;;;;1.87;1.77;;;10.00;99.90;;;;;;5042034;28;20429;-65
2023/01/12 07:03:28;;;;;;;2.60;2.40;;;9.90;99.90;;;;;;5039483;28;20200;-65
2023/01/12 07:05:58;;;;;;;2.33;2.20;;;10.00;99.90;;;;;;5048927;28;20432;-65
2023/01/12 07:08:23;;;;;;;1.57;1.43;;;10.00;99.90;;;;;;5052029;28;20687;-64
2023/01/12 07:10:49;;;;;;;1.73;1.27;;;10.00;99.90;;;;;;5053148;28;20454;-65
2023/01/12 07:13:15;;;;;;;1.73;1.20;;;10.10;99.90;;;;;;5053070;28;20285;-65
2023/01/12 07:15:40;;;;;;;3.30;3.20;;;10.10;99.90;;;;;;5055600;28;20208;-65
2023/01/12 07:18:06;;;;;;;2.50;2.40;;;9.90;99.90;;;;;;5054707;28;20267;-65
2023/01/12 07:20:32;;;;;;;1.90;1.80;;;9.90;99.90;;;;;;5055724;28;20213;-65
2023/01/12 07:22:58;;;;;;;2.00;2.00;;;9.90;99.90;;;;;;5051807;28;20178;-65
2023/01/12 07:25:25;;;;;;;1.87;1.77;;;9.90;99.90;;;;;;5041490;28;20182;-66
2023/01/12 07:27:57;;;;;;;1.73;1.63;;;9.80;99.90;;;;;;5035089;28;20427;-65
2023/01/12 07:30:24;;;;;;;1.60;1.60;;;9.70;99.90;;;;;;5040074;28;20432;-65
2023/01/12 07:32:50;;;;;;;2.00;1.90;;;9.70;99.90;;;;;;5052959;28;20521;-65
2023/01/12 07:35:17;;;;;;;1.57;1.57;;;9.80;99.90;;;;;;5054205;28;20413;-65
2023/01/12 07:37:47;;;;;;;1.50;1.40;;;9.80;99.90;;;;;;5053807;28;20460;-65
2023/01/12 07:40:13;;;;;;;1.37;1.37;;;9.90;99.90;;;;;;5053731;28;20471;-66
2023/01/12 07:42:39;;;;;;;1.20;1.10;;;9.90;99.90;;;;;;5054836;28;20768;-65
2023/01/12 07:45:05;;;;;;;1.30;1.20;;;10.00;99.90;;;;;;5054340;28;20409;-69
2023/01/12 07:47:31;;;;;;;2.37;2.27;;;10.00;99.90;;;;;;5053584;28;20179;-69
2023/01/12 07:49:57;;;;;;;5.13;2.33;;;10.20;99.90;;;;;;5055029;28;20472;-69
2023/01/12 07:52:22;;;;;;;2.53;2.30;;;10.10;99.90;;;;;;5054295;28;20267;-69
2023/01/12 07:54:48;;;;;;;6.47;3.17;;;10.20;99.90;;;;;;5051484;28;20904;-69
2023/01/12 07:57:14;;;;;;;2.60;2.40;;;10.50;99.90;;;;;;5041200;28;20211;-69
2023/01/12 07:59:40;;;;;;;2.43;2.33;;;10.60;99.90;;;;;;5053392;28;20428;-69
2023/01/12 08:02:09;;;;;;;2.93;2.47;;;10.90;99.90;;;;;;5051224;28;20756;-69
2023/01/12 08:04:35;;;;;;;2.10;1.97;;;11.00;99.90;;;;;;5045782;28;20195;-69
2023/01/12 08:07:00;;;;;;;3.90;3.60;;;11.00;99.90;;;;;;5054432;28;20413;-69
2023/01/12 08:09:26;;;;;;;2.83;2.63;;;11.00;99.90;;;;;;5052989;28;20216;-69
2023/01/12 08:11:52;;;;;;;3.93;3.63;;;11.10;99.90;;;;;;5052168;28;20271;-69
2023/01/12 08:14:32;;;;;;;1.60;1.50;;;11.30;99.90;;;;;;5053517;28;20201;-66
2023/01/12 08:17:00;;;;;;;1.60;1.60;;;11.30;99.90;;;;;;5054877;28;20161;-66
2023/01/12 08:19:35;;;;;;;4.10;4.00;;;11.30;99.90;;;;;;5053945;28;20419;-66
2023/01/12 08:22:06;;;;;;;3.40;3.30;;;11.20;99.90;;;;;;5052814;28;20929;-66
2023/01/12 08:24:39;;;;;;;2.03;1.90;;;11.10;99.90;;;;;;5048515;28;20435;-67
2023/01/12 08:27:07;;;;;;;2.10;2.00;;;11.10;99.90;;;;;;5035892;28;20461;-67
2023/01/12 08:29:38;;;;;;;1.70;1.70;;;11.00;99.90;;;;;;5054564;28;20415;-67
2023/01/12 08:32:05;;;;;;;2.20;2.10;;;10.90;99.90;;;;;;5053627;28;20464;-67
2023/01/12 08:34:33;;;;;;;2.70;2.60;;;10.90;99.90;;;;;;5066798;28;20467;-67
2023/01/12 08:37:04;;;;;;;2.90;2.70;;;10.90;99.90;;;;;;5074138;28;20518;-66
2023/01/12 08:39:30;;;;;;;4.50;4.10;;;11.00;99.90;;;;;;5065316;28;20514;-66
2023/01/12 08:41:56;;;;;;;3.20;3.00;;;10.90;99.90;;;;;;5054201;28;20555;-67
2023/01/12 08:44:22;;;;;;;3.20;2.90;;;10.90;99.90;;;;;;5053467;28;20489;-67
2023/01/12 08:46:52;;;;;;;2.50;2.40;;;10.80;99.90;;;;;;5054199;28;20180;-67
2023/01/12 08:49:21;;;;;;;2.80;2.60;;;10.80;99.90;;;;;;5053189;28;20183;-67
2023/01/12 08:51:47;;;;;;;2.30;2.10;;;10.80;99.90;;;;;;5054066;28;20514;-66
2023/01/12 08:54:15;;;;;;;2.57;2.43;;;10.80;99.90;;;;;;5058930;28;20581;-67
2023/01/12 08:56:41;;;;;;;3.23;3.03;;;10.80;99.90;;;;;;5052546;28;20173;-67
2023/01/12 08:59:07;;;;;;;3.60;3.50;;;10.80;99.90;;;;;;5055702;28;20425;-67
2023/01/12 09:01:33;;;;;;;4.40;4.10;;;10.90;99.90;;;;;;5060377;28;20539;-67
2023/01/12 09:04:00;;;;;;;2.90;2.70;;;10.90;99.90;;;;;;5048219;28;20517;-66
2023/01/12 09:06:33;;;;;;;3.30;3.10;;;10.90;99.90;;;;;;5051980;28;20492;-68
2023/01/12 09:09:01;;;;;;;4.57;4.37;;;10.90;99.90;;;;;;5053527;28;20424;-68
2023/01/12 09:11:29;;;;;;;4.20;3.90;;;10.90;99.90;;;;;;5051006;28;20484;-68
2023/01/12 09:13:57;;;;;;;3.80;3.60;;;10.90;99.90;;;;;;5052100;28;20548;-67
2023/01/12 09:16:24;;;;;;;3.40;3.30;;;10.90;99.90;;;;;;5051611;28;20421;-67
2023/01/12 09:18:50;;;;;;;5.60;5.20;;;10.90;99.90;;;;;;5053086;28;20419;-67
2023/01/12 09:21:18;;;;;;;2.90;2.80;;;10.90;99.90;;;;;;5052924;28;20416;-68
2023/01/12 09:23:43;;;;;;;6.00;5.70;;;10.90;99.90;;;;;;5053335;28;20419;-67
2023/01/12 09:26:11;;;;;;;4.53;4.10;;;11.00;99.90;;;;;;5052644;28;20462;-68
2023/01/12 09:28:37;;;;;;;4.30;4.00;;;11.00;99.90;;;;;;5051911;28;20592;-67
2023/01/12 09:31:15;;;;;;;4.57;4.47;;;11.10;99.90;;;;;;5051044;28;20424;-68
2023/01/12 09:33:41;;;;;;;4.33;4.07;;;11.10;99.90;;;;;;5052992;28;20463;-68
2023/01/12 09:36:12;;;;;;;3.97;3.77;;;11.10;99.90;;;;;;5052977;28;20972;-68
2023/01/12 09:38:40;;;;;;;3.50;3.30;;;11.00;99.90;;;;;;5052559;28;20430;-68
2023/01/12 09:41:17;;;;;;;3.10;2.90;;;11.10;99.90;;;;;;5052421;28;20455;-67
2023/01/12 09:49:19;;;;;;;3.50;3.33;;;11.10;99.90;;;;;;5051954;28;20811;-68
2023/01/12 09:52:15;;;;;;;3.40;3.30;;;11.10;99.90;;;;;;5052739;28;20785;-68
2023/01/12 09:54:41;;;;;;;3.97;3.77;;;11.10;99.90;;;;;;5050473;28;20474;-67
2023/01/12 09:57:18;;;;;;;4.57;4.37;;;11.30;99.90;;;;;;5051812;28;20424;-67
2023/01/12 10:00:05;;;;;;;4.00;3.83;;;11.20;99.90;;;;;;5052961;28;20465;-67
2023/01/12 10:02:36;;;;;;;4.00;3.90;;;11.20;99.90;;;;;;5051917;28;20416;-68
2023/01/12 10:05:06;;;;;;;4.40;4.10;;;11.30;99.90;;;;;;5052644;28;20454;-67
2023/01/12 10:07:33;;;;;;;3.80;3.60;;;11.30;99.90;;;;;;5052097;28;20404;-68
2023/01/12 10:09:59;;;;;;;4.03;3.80;;;11.30;99.90;;;;;;5052690;28;20424;-68
2023/01/12 10:12:40;;;;;;;5.10;5.00;;;11.30;99.90;;;;;;5051908;28;20416;-68
2023/01/12 10:15:25;;;;;;;4.03;3.80;;;11.40;99.90;;;;;;5051778;28;20453;-68
2023/01/12 10:18:06;;;;;;;8.00;4.20;;;11.40;99.90;;;;;;5050508;28;20435;-68
2023/01/12 10:20:40;;;;;;;4.13;3.90;;;11.30;99.90;;;;;;5051588;28;20396;-67
2023/01/12 10:23:06;;;;;;;3.43;3.23;;;11.30;99.90;;;;;;5052223;28;20740;-67
2023/01/12 10:25:42;;;;;;;3.70;3.50;;;11.30;99.90;;;;;;5052079;28;20431;-67
2023/01/12 10:28:25;;;;;;;4.47;3.90;;;11.30;99.90;;;;;;5052406;28;20177;-67
2023/01/12 10:30:52;;;;;;;3.10;2.80;;;11.30;99.90;;;;;;5050018;28;20424;-67
2023/01/12 10:33:22;;;;;;;3.33;3.13;;;11.40;99.90;;;;;;5051683;28;20504;-67
2023/01/12 10:36:02;;;;;;;3.37;3.13;;;11.40;99.90;;;;;;5052444;28;20407;-67
2023/01/12 10:38:37;;;;;;;3.20;3.00;;;11.40;99.90;;;;;;5051683;28;20425;-66
2023/01/12 10:41:08;;;;;;;2.87;2.77;;;11.40;99.90;;;;;;5052197;28;21100;-66
2023/01/12 10:43:35;;;;;;;4.30;3.87;;;11.40;99.90;;;;;;5051611;28;20432;-66
2023/01/12 10:46:05;;;;;;;3.30;3.20;;;11.40;99.90;;;;;;5053966;28;20424;-66
2023/01/12 10:48:31;;;;;;;4.00;3.80;;;11.50;99.90;;;;;;5054991;28;20412;-66
2023/01/12 10:50:58;;;;;;;4.53;4.33;;;11.50;99.90;;;;;;5055777;28;20406;-66
2023/01/12 10:53:35;;;;;;;3.90;3.70;;;11.60;99.90;;;;;;5055257;28;20471;-66
2023/01/12 10:56:20;;;;;;;3.47;3.37;;;11.60;99.90;;;;;;5056148;28;20499;-66
2023/01/12 10:59:02;;;;;;;4.17;3.97;;;11.60;99.90;;;;;;5054019;28;20422;-66
2023/01/12 11:01:58;;;;;;;3.80;3.60;;;11.60;99.90;;;;;;5054658;28;20812;-67
2023/01/12 11:04:28;;;;;;;3.23;3.13;;;11.50;99.90;;;;;;5054920;28;20401;-66
2023/01/12 11:07:01;;;;;;;3.50;3.17;;;11.50;99.90;;;;;;5054676;28;20655;-67
2023/01/12 11:09:29;;;;;;;3.80;3.60;;;11.60;99.90;;;;;;5054910;28;20469;-67
2023/01/12 11:11:57;;;;;;;3.10;3.00;;;11.60;99.90;;;;;;5055723;28;20416;-67
2023/01/12 11:14:32;;;;;;;3.23;3.13;;;11.60;99.90;;;;;;5055102;28;20449;-67
2023/01/12 11:17:18;;;;;;;3.00;2.90;;;11.60;99.90;;;;;;5054511;28;20769;-66
2023/01/12 11:19:46;;;;;;;3.00;2.80;;;11.60;99.90;;;;;;5053105;28;20439;-67
2023/01/12 11:22:19;;;;;;;3.83;3.63;;;11.60;99.90;;;;;;5054474;28;20918;-67
2023/01/12 11:24:56;;;;;;;3.93;3.83;;;11.60;99.90;;;;;;5054598;28;20407;-67
2023/01/12 11:27:34;;;;;;;3.97;3.87;;;11.60;99.90;;;;;;5054992;28;20408;-67
2023/01/12 11:30:14;;;;;;;2.87;2.73;;;11.70;99.90;;;;;;5055264;28;20394;-67
2023/01/12 11:32:57;;;;;;;2.47;2.37;;;11.70;99.90;;;;;;5055478;28;20414;-66
2023/01/12 11:35:43;;;;;;;3.23;3.00;;;11.70;99.90;;;;;;5054796;28;20492;-67
2023/01/12 11:38:19;;;;;;;4.40;2.60;;;11.60;99.90;;;;;;5055298;28;20506;-67
2023/01/12 11:40:46;;;;;;;2.30;2.20;;;11.60;99.90;;;;;;5054725;28;20465;-67
2023/01/12 11:46:27;;;;;;;2.50;2.40;;;11.70;99.90;;;;;;5053070;28;20415;-66
2023/01/12 11:49:18;;;;;;;4.50;4.40;;;11.70;99.90;;;;;;5054912;28;20875;-66
2023/01/12 11:51:48;;;;;;;2.83;2.73;;;11.60;99.90;;;;;;5055154;28;20399;-67
2023/01/12 11:54:17;;;;;;;3.83;3.53;;;11.70;99.90;;;;;;5054947;28;20543;-66
2023/01/12 11:57:24;;;;;;;3.50;3.30;;;11.70;99.90;;;;;;5052702;28;20415;-67
2023/01/12 12:00:18;;;;;;;3.27;3.13;;;11.70;99.90;;;;;;5055013;28;20783;-66
2023/01/12 12:02:51;;;;;;;3.53;3.33;;;11.60;99.90;;;;;;5034408;28;20481;-67
2023/01/12 12:05:17;;;;;;;2.50;2.30;;;11.60;99.90;;;;;;5032663;28;20408;-67
2023/01/12 12:08:18;;;;;;;3.50;3.20;;;11.60;99.90;;;;;;5034676;28;20494;-66
2023/01/12 12:10:56;;;;;;;3.03;2.80;;;11.60;99.90;;;;;;5034846;28;20174;-67
2023/01/12 12:13:36;;;;;;;3.90;2.70;;;11.60;99.90;;;;;;5034071;28;20445;-67
2023/01/12 12:16:16;;;;;;;3.63;3.53;;;11.60;99.90;;;;;;5033619;28;20443;-66
2023/01/12 12:18:45;;;;;;;2.80;2.70;;;11.70;99.90;;;;;;5034554;28;20506;-67
2023/01/12 12:21:29;;;;;;;3.40;3.17;;;11.70;99.90;;;;;;5039110;28;20432;-67
2023/01/12 12:24:21;;;;;;;2.93;2.83;;;11.70;99.90;;;;;;5054676;28;20430;-66
2023/01/12 12:27:07;;;;;;;3.20;2.50;;;11.70;99.90;;;;;;5042978;28;20809;-66
2023/01/12 12:30:04;;;;;;;3.63;3.43;;;11.60;99.90;;;;;;5053435;28;20402;-67
2023/01/12 12:32:29;;;;;;;4.00;3.80;;;11.60;99.90;;;;;;5053399;28;20435;-67
2023/01/12 12:35:20;;;;;;;3.63;3.40;;;11.60;99.90;;;;;;5054257;28;20417;-67
2023/01/12 12:38:22;;;;;;;4.03;2.90;;;11.60;99.90;;;;;;5054209;28;20184;-67
2023/01/12 12:47:46;;;;;;;3.23;3.13;;;11.70;99.90;;;;;;5052714;28;20424;-67
2023/01/12 12:50:29;;;;;;;3.20;3.10;;;11.80;99.90;;;;;;5053930;28;20419;-67
2023/01/12 12:53:23;;;;;;;4.33;4.20;;;11.70;99.90;;;;;;5053826;28;20450;-67
2023/01/12 12:55:51;;;;;;;3.63;3.50;;;11.70;99.90;;;;;;5052371;28;20450;-67
2023/01/12 12:58:22;;;;;;;2.23;2.13;;;11.80;99.90;;;;;;5053776;28;20401;-67
2023/01/12 13:00:50;;;;;;;4.33;4.10;;;11.70;99.90;;;;;;5053615;28;20528;-67
2023/01/12 13:03:37;;;;;;;4.10;3.90;;;11.70;99.90;;;;;;5035879;28;20986;-66
2023/01/12 13:06:33;;;;;;;2.90;2.80;;;11.70;99.90;;;;;;5052516;28;20789;-67
2023/01/12 13:09:02;;;;;;;2.53;2.40;;;11.70;99.90;;;;;;5053247;28;20441;-67
2023/01/12 13:12:07;;;;;;;4.20;4.03;;;11.70;99.90;;;;;;5053207;28;20498;-67
2023/01/12 13:14:40;;;;;;;4.03;3.73;;;11.70;99.90;;;;;;5052896;28;20459;-67
2023/01/12 13:17:18;;;;;;;3.10;3.00;;;11.70;99.90;;;;;;5053401;28;20405;-67
2023/01/12 13:19:45;;;;;;;3.20;3.10;;;11.70;99.90;;;;;;5052714;28;20431;-66
2023/01/12 13:22:47;;;;;;;2.70;2.60;;;11.70;99.90;;;;;;5053297;28;20458;-67
2023/01/12 13:25:16;;;;;;;2.60;2.50;;;11.80;99.90;;;;;;5053404;28;20435;-67
2023/01/12 13:27:59;;;;;;;2.80;2.60;;;11.80;99.90;;;;;;5052621;28;20525;-67
2023/01/12 13:30:27;;;;;;;2.53;2.43;;;11.80;99.90;;;;;;5052462;28;20464;-67
2023/01/12 13:33:13;;;;;;;3.40;3.30;;;11.80;99.90;;;;;;5051443;28;20452;-66
2023/01/12 13:35:48;;;;;;;2.80;2.70;;;11.90;99.90;;;;;;5051058;28;20424;-66
2023/01/12 13:38:28;;;;;;;2.60;2.50;;;11.90;99.90;;;;;;5053024;28;20479;-66
2023/01/12 13:41:12;;;;;;;2.50;2.40;;;11.80;99.90;;;;;;5052902;28;20970;-66
2023/01/12 13:43:54;;;;;;;2.30;2.20;;;11.80;99.90;;;;;;5052052;28;20427;-66
2023/01/12 13:46:26;;;;;;;2.30;2.20;;;11.90;99.90;;;;;;5052744;28;20927;-67
2023/01/12 13:48:54;;;;;;;2.07;1.97;;;11.90;99.90;;;;;;5053165;28;20399;-67